Time;durP1;ratioP1;P1;durP2;ratioP2;P2;SDS_P1;SDS_P2;PMS_P1;PMS_P2;Temp;Humidity;BMP_temperature;BMP_pressure;BME280_temperature;BME280_humidity;BME280_pressure;Samples;Min_cycle;Max_cycle;Signal;HPM_P1;HPM_P2
2022/04/08 07:52:55;;;;;;;9.80;1.13;;;5.60;99.90;;;;;;5112552;27;2064085;-92
2022/04/08 07:55:23;;;;;;;5.75;1.15;;;6.20;99.90;;;;;;5108832;27;20043;-93
2022/04/08 07:57:51;;;;;;;4.18;0.88;;;6.00;99.90;;;;;;5138991;27;20119;-92
2022/04/08 08:00:19;;;;;;;0.85;0.57;;;6.10;99.90;;;;;;5136173;27;20048;-92
2022/04/08 08:02:45;;;;;;;5.00;1.67;;;6.30;99.90;;;;;;5053876;27;20096;-92
2022/04/08 08:05:12;;;;;;;7.57;1.00;;;6.40;99.90;;;;;;5045945;28;20048;-94
2022/04/08 08:07:50;;;;;;;9.13;1.20;;;6.60;99.90;;;;;;5049700;28;20520;-93
2022/04/08 08:10:22;;;;;;;12.57;1.75;;;6.60;99.90;;;;;;5049201;28;20043;-92
2022/04/08 08:12:49;;;;;;;6.85;1.20;;;6.60;99.90;;;;;;5053893;28;20041;-93
2022/04/08 08:15:15;;;;;;;16.33;2.42;;;6.40;99.90;;;;;;5054583;28;20055;-92
2022/04/08 08:17:43;;;;;;;12.02;2.85;;;6.50;99.90;;;;;;5054594;28;20135;-93
2022/04/08 08:20:13;;;;;;;9.98;1.83;;;6.30;99.90;;;;;;5054955;28;20043;-94
2022/04/08 08:22:42;;;;;;;5.93;1.52;;;6.00;99.90;;;;;;5055125;28;20438;-94
2022/04/08 08:25:10;;;;;;;7.68;1.95;;;5.90;99.90;;;;;;5054589;28;20051;-94
2022/04/08 08:28:06;;;;;;;6.53;1.35;;;5.90;99.90;;;;;;5054324;28;20094;-93
2022/04/08 08:30:38;;;;;;;7.97;1.70;;;6.00;99.90;;;;;;5050619;28;20040;-94
2022/04/08 08:33:11;;;;;;;7.82;1.02;;;5.90;99.90;;;;;;5054977;28;20087;-93
2022/04/08 08:35:39;;;;;;;10.98;2.25;;;5.80;99.90;;;;;;5038725;28;20052;-94
2022/04/08 08:38:06;;;;;;;9.75;2.33;;;5.80;99.90;;;;;;5054802;28;20040;-92
2022/04/08 08:40:33;;;;;;;12.68;1.80;;;5.80;99.90;;;;;;5038030;28;20159;-93
2022/04/08 08:43:04;;;;;;;14.60;2.30;;;6.00;99.90;;;;;;5054134;28;20059;-93
2022/04/08 08:45:33;;;;;;;13.07;1.90;;;6.20;99.90;;;;;;5029851;28;20068;-94
2022/04/08 08:48:01;;;;;;;9.50;1.85;;;6.10;99.90;;;;;;5048274;28;20123;-93
2022/04/08 08:50:31;;;;;;;12.93;2.38;;;6.10;99.90;;;;;;5046713;28;20052;-95
2022/04/08 08:52:57;;;;;;;8.77;1.90;;;6.00;99.90;;;;;;5050427;28;20048;-92
2022/04/08 08:55:24;;;;;;;6.78;1.10;;;6.00;99.90;;;;;;5053523;28;20165;-92
2022/04/08 08:57:51;;;;;;;16.40;1.50;;;6.00;99.90;;;;;;5051515;28;20071;-93
2022/04/08 09:00:19;;;;;;;5.63;1.20;;;6.20;99.90;;;;;;5047302;28;20074;-94
2022/04/08 09:02:50;;;;;;;3.40;0.90;;;6.70;99.90;;;;;;5045984;28;20174;-94
2022/04/08 09:05:20;;;;;;;;;;;7.20;99.90;;;;;;5018513;28;20036;-96
2022/04/08 09:08:00;;;;;;;0.98;0.52;;;7.60;99.90;;;;;;5032230;28;19925;-91
2022/04/08 09:10:36;;;;;;;15.23;2.30;;;8.00;99.90;;;;;;5033534;28;20743;-92
2022/04/08 09:13:04;;;;;;;5.47;1.08;;;8.10;99.90;;;;;;5030366;28;20548;-92
2022/04/08 09:15:31;;;;;;;7.90;1.15;;;7.80;99.90;;;;;;5037498;28;20045;-92
2022/04/08 09:18:15;;;;;;;10.63;2.00;;;7.40;99.90;;;;;;5028130;28;20053;-94
2022/04/08 09:20:44;;;;;;;6.90;1.55;;;6.90;99.90;;;;;;5032735;28;20056;-93
2022/04/08 09:23:11;;;;;;;9.90;1.67;;;6.70;99.90;;;;;;5034799;28;20040;-93
2022/04/08 09:25:39;;;;;;;11.23;2.45;;;6.80;99.90;;;;;;5035621;28;20037;-92
2022/04/08 09:28:15;;;;;;;;;;;7.20;99.90;;;;;;5031091;28;20044;-94
2022/04/08 09:30:46;;;;;;;10.40;2.08;;;7.60;99.90;;;;;;5039842;28;20366;-93
2022/04/08 09:33:19;;;;;;;7.68;0.98;;;7.90;99.90;;;;;;5036606;28;20099;-93
2022/04/08 09:35:46;;;;;;;10.50;2.17;;;8.20;99.90;;;;;;5036690;28;20124;-91
2022/04/08 09:38:17;;;;;;;8.48;1.55;;;8.30;99.90;;;;;;5004061;28;20588;-94
2022/04/08 09:40:47;;;;;;;13.32;2.17;;;8.10;99.90;;;;;;5020562;28;20784;-93
2022/04/08 09:43:13;;;;;;;12.10;2.03;;;7.70;99.90;;;;;;5020287;28;20044;-92
2022/04/08 09:45:41;;;;;;;9.32;2.05;;;7.40;99.90;;;;;;5019756;28;20108;-93
2022/04/08 09:48:10;;;;;;;6.30;1.80;;;7.10;99.90;;;;;;5020456;28;20075;-95
2022/04/08 09:50:37;;;;;;;5.43;1.92;;;6.80;99.90;;;;;;5038089;28;20044;-94
2022/04/08 09:53:06;;;;;;;6.78;1.83;;;6.60;99.90;;;;;;5039630;28;20060;-95
2022/04/08 09:55:34;;;;;;;9.63;1.95;;;6.50;99.90;;;;;;5039359;28;20140;-93
2022/04/08 09:58:08;;;;;;;14.48;2.00;;;7.10;99.90;;;;;;5023780;28;20052;-93
2022/04/08 10:00:35;;;;;;;6.85;1.58;;;7.40;99.90;;;;;;5039158;28;20381;-93
2022/04/08 10:03:03;;;;;;;8.40;1.63;;;7.60;99.90;;;;;;5039382;28;20041;-94
2022/04/08 10:05:29;;;;;;;5.55;1.05;;;7.80;99.90;;;;;;5039123;28;20091;-94
2022/04/08 10:08:10;;;;;;;8.23;1.90;;;8.00;99.90;;;;;;5039939;28;20120;-93
2022/04/08 10:10:51;;;;;;;;;;;8.30;99.90;;;;;;5039740;28;20488;-94
2022/04/08 10:13:53;;;;;;;7.72;1.63;;;8.40;99.90;;;;;;5039752;28;19920;-94
2022/04/08 10:16:23;;;;;;;7.57;1.75;;;8.60;99.90;;;;;;5019231;28;20053;-94
2022/04/08 10:18:52;;;;;;;8.05;1.85;;;8.90;99.90;;;;;;5003305;28;20052;-95
2022/04/08 10:21:18;;;;;;;6.05;0.88;;;8.60;99.90;;;;;;5038263;28;20040;-94
2022/04/08 10:23:55;;;;;;;13.65;2.28;;;8.60;99.90;;;;;;5022756;28;20049;-94
2022/04/08 10:26:25;;;;;;;8.50;2.20;;;8.80;99.90;;;;;;5032843;28;20512;-95
2022/04/08 10:28:52;;;;;;;;;;;8.60;99.90;;;;;;5020825;28;20140;-93
2022/04/08 10:31:30;;;;;;;7.53;1.85;;;8.30;99.90;;;;;;5032573;28;20368;-94
2022/04/08 10:33:57;;;;;;;7.63;1.88;;;8.20;99.90;;;;;;5035194;28;20041;-94
2022/04/08 10:36:38;;;;;;;9.45;1.63;;;8.60;99.90;;;;;;5030231;28;20052;-95
2022/04/08 10:39:18;;;;;;;5.65;1.90;;;8.80;99.90;;;;;;5030532;28;20459;-94
2022/04/08 10:41:52;;;;;;;9.57;1.70;;;9.10;99.90;;;;;;5027331;28;20047;-93
2022/04/08 10:44:41;;;;;;;7.63;1.30;;;9.30;99.90;;;;;;5024344;28;20067;-94
2022/04/08 10:47:20;;;;;;;7.47;1.10;;;9.60;99.90;;;;;;5032677;28;20037;-92
2022/04/08 10:50:41;;;;;;;10.93;2.13;;;9.90;99.90;;;;;;5035832;28;20558;-94
2022/04/08 10:53:28;;;;;;;6.53;0.85;;;9.70;99.90;;;;;;5046671;28;20061;-95
2022/04/08 10:56:50;;;;;;;;;;;;;;;;;;;;;
2022/04/08 10:59:31;;;;;;;7.28;1.30;;;8.10;99.90;;;;;;5028414;28;20060;-94
2022/04/08 11:02:02;;;;;;;10.25;1.85;;;8.10;99.90;;;;;;5018978;28;20117;-94
2022/04/08 11:04:35;;;;;;;7.50;1.10;;;8.30;99.90;;;;;;5051977;28;20051;-94
2022/04/08 11:07:19;;;;;;;;;;;;;;;;;;;;;
2022/04/08 11:10:28;;;;;;;7.20;1.70;;;8.80;99.90;;;;;;5039618;28;20515;-96
2022/04/08 11:16:22;;;;;;;6.55;1.38;;;9.30;99.90;;;;;;5011148;28;20064;-94
2022/04/08 11:19:10;;;;;;;10.00;2.47;;;9.50;99.90;;;;;;4975071;28;20046;-95
2022/04/08 11:22:43;;;;;;;6.55;1.90;;;9.60;99.90;;;;;;4978355;28;20058;-95
2022/04/08 11:25:37;;;;;;;12.93;2.20;;;9.10;99.90;;;;;;4942528;28;20391;-95
2022/04/08 11:28:57;;;;;;;14.48;2.53;;;8.70;99.90;;;;;;4882671;29;20068;-95
2022/04/08 11:31:58;;;;;;;16.67;2.47;;;8.30;99.90;;;;;;4910019;28;20098;-96
2022/04/08 11:34:27;;;;;;;3.75;0.73;;;8.10;99.90;;;;;;4975213;28;20046;-94
2022/04/08 11:37:02;;;;;;;1.75;0.45;;;8.10;99.90;;;;;;4975143;28;20050;-95
2022/04/08 11:40:31;;;;;;;;;;;;;;;;;;;;;
2022/04/08 11:43:10;;;;;;;5.55;1.27;;;8.60;99.90;;;;;;4986926;28;20380;-96
2022/04/08 11:45:37;;;;;;;8.27;1.45;;;9.10;99.90;;;;;;4974916;28;20038;-92
2022/04/08 11:48:06;;;;;;;2.00;0.55;;;9.40;99.90;;;;;;5016989;28;20447;-94
2022/04/08 11:50:35;;;;;;;8.50;1.50;;;9.30;99.90;;;;;;5017039;28;20477;-94
2022/04/08 11:53:02;;;;;;;5.25;0.95;;;9.10;99.90;;;;;;5016833;28;20053;-95
2022/04/08 11:55:28;;;;;;;6.45;1.55;;;9.10;99.90;;;;;;5033390;28;20051;-95
2022/04/08 11:57:55;;;;;;;10.60;2.13;;;8.90;99.90;;;;;;5016874;28;20132;-93
2022/04/08 12:00:27;;;;;;;6.10;1.73;;;8.80;99.90;;;;;;5001181;28;20045;-93
2022/04/08 12:02:56;;;;;;;11.75;1.92;;;8.70;99.90;;;;;;5013720;28;20050;-95
2022/04/08 12:05:25;;;;;;;10.50;1.90;;;8.60;99.90;;;;;;5013036;28;20052;-94
2022/04/08 12:07:52;;;;;;;7.68;1.48;;;8.50;99.90;;;;;;5029721;28;20045;-94
2022/04/08 12:10:21;;;;;;;10.18;2.10;;;8.50;99.90;;;;;;5032904;28;20497;-92
2022/04/08 12:12:50;;;;;;;10.95;1.80;;;8.70;99.90;;;;;;5032516;28;20460;-95
2022/04/08 12:15:22;;;;;;;9.35;1.55;;;8.80;99.90;;;;;;5033195;28;20045;-93
2022/04/08 12:17:50;;;;;;;5.80;1.50;;;9.10;99.90;;;;;;5034986;28;20048;-95
2022/04/08 12:20:18;;;;;;;6.35;2.05;;;9.30;99.90;;;;;;5034319;28;20056;-93
2022/04/08 12:22:49;;;;;;;7.03;2.17;;;9.50;99.90;;;;;;5017681;28;20045;-94
2022/04/08 12:25:20;;;;;;;10.48;2.13;;;9.50;99.90;;;;;;5051483;28;20048;-95
2022/04/08 12:27:54;;;;;;;4.57;1.27;;;9.30;99.90;;;;;;5034196;28;20098;-94
2022/04/08 12:30:34;;;;;;;7.03;1.65;;;9.30;99.90;;;;;;5034426;28;20045;-93
2022/04/08 12:33:00;;;;;;;12.07;2.20;;;9.00;99.90;;;;;;5046108;28;20110;-93
2022/04/08 12:35:27;;;;;;;5.68;1.48;;;9.00;99.90;;;;;;5017987;28;20296;-93
2022/04/08 12:37:53;;;;;;;11.95;1.90;;;8.70;99.90;;;;;;5030994;28;20045;-94
2022/04/08 12:40:19;;;;;;;11.20;1.65;;;8.70;99.90;;;;;;5036796;28;20044;-94
2022/04/08 12:42:45;;;;;;;8.23;1.75;;;8.90;99.90;;;;;;5037970;28;20393;-95
2022/04/08 12:45:21;;;;;;;10.15;1.65;;;9.10;99.90;;;;;;5054948;28;20132;-94
2022/04/08 12:47:48;;;;;;;10.52;1.83;;;8.90;99.90;;;;;;5037683;28;20532;-95
2022/04/08 12:50:22;;;;;;;5.95;1.42;;;9.00;99.90;;;;;;5038631;28;20555;-94
2022/04/08 12:52:50;;;;;;;10.50;2.15;;;9.20;99.90;;;;;;5035923;28;20492;-94
2022/04/08 13:03:45;;;;;;;10.35;1.95;;;9.50;99.90;;;;;;4991926;28;20562;-96
2022/04/08 13:10:31;;;;;;;5.35;2.03;;;9.50;99.90;;;;;;4993063;28;20050;-95
2022/04/08 13:14:15;;;;;;;4.38;1.52;;;9.40;99.60;;;;;;4934974;29;20131;-95
2022/04/08 13:17:36;;;;;;;8.25;1.83;;;9.30;99.30;;;;;;4918836;29;20051;-94
2022/04/08 13:31:40;;;;;;;6.40;1.50;;;9.40;99.90;;;;;;4860827;29;20049;-95
2022/04/08 13:34:48;;;;;;;;;;;;;;;;;;;;;
2022/04/08 14:02:43;;;;;;;;;;;;;;;;;;;;;
2022/04/08 14:28:19;;;;;;;10.43;1.70;;;9.20;98.80;;;;;;4866527;29;20053;-96
2022/04/08 14:35:25;;;;;;;;;;;;;;;;;;;;;
2022/04/08 14:42:50;;;;;;;9.30;1.92;;;9.80;99.90;;;;;;4861713;29;20060;-96
2022/04/08 14:53:10;;;;;;;9.40;2.17;;;9.00;98.20;;;;;;5143938;27;20117;-67
2022/04/08 14:55:36;;;;;;;6.55;2.20;;;9.10;98.80;;;;;;5104332;28;20039;-67
2022/04/08 14:58:04;;;;;;;9.00;2.03;;;9.10;99.50;;;;;;5121944;28;20039;-68
2022/04/08 15:00:30;;;;;;;12.18;2.60;;;9.20;98.10;;;;;;5104213;28;20612;-67
2022/04/08 15:02:57;;;;;;;7.85;2.47;;;9.40;99.90;;;;;;5121478;28;20039;-67
2022/04/08 15:05:23;;;;;;;7.53;2.40;;;9.50;98.70;;;;;;5087564;28;20055;-67
2022/04/08 15:07:49;;;;;;;13.85;3.13;;;9.20;94.80;;;;;;5102805;28;20043;-67
2022/04/08 15:10:15;;;;;;;9.50;2.03;;;8.90;98.10;;;;;;5121842;28;20045;-68
2022/04/08 15:12:41;;;;;;;8.35;2.15;;;8.90;98.50;;;;;;5120982;28;20428;-67
2022/04/08 15:15:08;;;;;;;7.07;1.63;;;9.00;93.80;;;;;;5103256;28;20136;-68
2022/04/08 15:17:34;;;;;;;13.40;2.50;;;9.00;95.50;;;;;;5104288;28;20400;-67
2022/04/08 15:20:00;;;;;;;10.30;2.22;;;9.00;96.30;;;;;;5085348;28;20039;-68
2022/04/08 15:22:26;;;;;;;10.23;2.00;;;8.90;96.60;;;;;;5102324;28;20038;-67
2022/04/08 15:24:55;;;;;;;14.15;2.80;;;8.90;96.40;;;;;;5082541;28;20421;-68
2022/04/08 15:27:21;;;;;;;7.15;2.20;;;8.90;96.30;;;;;;5092849;27;20039;-68
2022/04/08 15:29:48;;;;;;;9.65;2.20;;;9.00;99.90;;;;;;5105438;27;20038;-67
2022/04/08 15:32:14;;;;;;;11.63;2.17;;;9.00;92.70;;;;;;5093912;28;20093;-67
2022/04/08 15:34:40;;;;;;;10.60;2.40;;;8.90;99.40;;;;;;5103613;28;20047;-67
2022/04/08 15:37:14;;;;;;;9.32;1.80;;;8.80;99.90;;;;;;5120047;28;20092;-67
2022/04/08 15:39:40;;;;;;;11.50;1.85;;;8.70;96.80;;;;;;5070356;28;20047;-68
2022/04/08 15:42:06;;;;;;;2.83;0.40;;;8.80;99.90;;;;;;5083732;28;20047;-68
2022/04/08 15:44:32;;;;;;;10.63;2.20;;;8.70;96.60;;;;;;5105633;28;20057;-68
2022/04/08 15:46:58;;;;;;;7.55;1.83;;;8.60;99.90;;;;;;5122396;28;20035;-67
2022/04/08 15:49:24;;;;;;;7.45;1.90;;;8.50;97.50;;;;;;5088624;28;20048;-67
2022/04/08 15:51:50;;;;;;;14.48;2.03;;;8.40;98.50;;;;;;5104266;28;20055;-67
2022/04/08 15:54:17;;;;;;;11.32;1.80;;;8.40;99.90;;;;;;5079479;27;20059;-67
2022/04/08 15:56:43;;;;;;;7.18;1.55;;;8.40;99.90;;;;;;5086732;27;20043;-68
2022/04/08 15:59:09;;;;;;;9.32;1.77;;;8.30;98.20;;;;;;5100263;27;20047;-68
2022/04/08 16:01:35;;;;;;;10.98;2.50;;;8.30;98.50;;;;;;5103195;27;20055;-67
2022/04/08 16:04:01;;;;;;;15.10;2.30;;;8.30;99.90;;;;;;5089070;28;20036;-68
2022/04/08 16:06:27;;;;;;;14.18;2.70;;;8.30;99.90;;;;;;5071659;28;20100;-68
2022/04/08 16:08:53;;;;;;;12.52;1.52;;;8.20;99.90;;;;;;5088215;28;20500;-68
2022/04/08 16:11:20;;;;;;;8.48;2.22;;;8.20;99.90;;;;;;5054195;28;20048;-67
2022/04/08 16:13:46;;;;;;;12.63;3.35;;;8.20;99.90;;;;;;5054621;28;20081;-67
2022/04/08 16:16:14;;;;;;;14.98;2.75;;;8.10;99.90;;;;;;5069539;28;20055;-68
2022/04/08 16:18:40;;;;;;;16.13;2.95;;;8.10;99.90;;;;;;5089731;28;20495;-67
2022/04/08 16:21:09;;;;;;;14.35;2.45;;;8.10;99.90;;;;;;5106636;28;20086;-67
2022/04/08 16:23:36;;;;;;;11.85;3.08;;;8.10;99.90;;;;;;5072778;28;20048;-68
2022/04/08 16:26:02;;;;;;;13.60;2.20;;;8.00;99.90;;;;;;5089324;28;20036;-67
2022/04/08 16:28:28;;;;;;;15.40;2.55;;;7.90;99.90;;;;;;5088981;27;20082;-67
2022/04/08 16:30:55;;;;;;;12.60;2.28;;;7.80;99.90;;;;;;5106674;27;20078;-67
2022/04/08 16:33:21;;;;;;;11.30;2.20;;;7.80;99.90;;;;;;5107854;27;20036;-68
2022/04/08 16:35:48;;;;;;;12.77;2.50;;;7.80;99.90;;;;;;5091064;28;20036;-68
2022/04/08 16:38:14;;;;;;;9.18;2.17;;;7.70;99.90;;;;;;5107487;28;20056;-68
2022/04/08 16:40:42;;;;;;;14.65;2.75;;;7.60;99.90;;;;;;5095195;28;20125;-68
2022/04/08 16:43:09;;;;;;;7.35;1.58;;;7.50;99.90;;;;;;5065990;28;20132;-69
2022/04/08 16:45:34;;;;;;;12.73;2.92;;;7.10;99.90;;;;;;5070995;28;20554;-68
2022/04/08 16:48:00;;;;;;;10.13;2.75;;;6.60;99.90;;;;;;5069424;28;20043;-68
2022/04/08 16:50:26;;;;;;;9.52;1.60;;;6.40;99.90;;;;;;5069973;28;20619;-68
2022/04/08 16:52:52;;;;;;;7.53;1.85;;;6.40;99.90;;;;;;5069837;28;20063;-67
2022/04/08 16:55:18;;;;;;;11.13;2.22;;;6.40;99.90;;;;;;5068357;28;20043;-68
2022/04/08 16:57:44;;;;;;;9.32;2.65;;;6.40;99.90;;;;;;5088939;28;20144;-67
2022/04/08 17:00:11;;;;;;;7.35;1.63;;;6.40;99.90;;;;;;5052168;28;20936;-68
2022/04/08 17:02:38;;;;;;;6.35;1.73;;;6.40;99.90;;;;;;5091435;28;20123;-68
2022/04/08 17:05:05;;;;;;;9.10;1.63;;;6.40;99.90;;;;;;5087197;28;20070;-68
2022/04/08 17:07:31;;;;;;;7.10;1.35;;;6.50;99.90;;;;;;5069925;28;20527;-68
2022/04/08 17:09:57;;;;;;;7.57;1.80;;;6.50;99.90;;;;;;5069426;28;20036;-68
2022/04/08 17:12:22;;;;;;;8.70;2.03;;;6.50;99.90;;;;;;5069784;28;20509;-68
2022/04/08 17:14:49;;;;;;;10.27;1.70;;;6.60;99.90;;;;;;5087611;28;20370;-68
2022/04/08 17:17:14;;;;;;;10.27;2.15;;;6.60;99.90;;;;;;5072020;28;20097;-68
2022/04/08 17:19:41;;;;;;;16.38;2.33;;;6.60;99.90;;;;;;5053837;28;20040;-67
2022/04/08 17:22:06;;;;;;;18.13;2.70;;;6.70;99.90;;;;;;5067651;28;20896;-67
2022/04/08 17:24:32;;;;;;;12.40;2.05;;;6.70;99.90;;;;;;5070043;28;20073;-68
2022/04/08 17:26:59;;;;;;;16.25;3.15;;;6.70;99.90;;;;;;5059368;28;20192;-67
2022/04/08 17:29:25;;;;;;;13.57;2.33;;;6.80;99.90;;;;;;5072176;28;20054;-68
2022/04/08 17:31:52;;;;;;;10.77;2.28;;;6.80;99.90;;;;;;5072235;28;20145;-68
2022/04/08 17:34:18;;;;;;;16.80;3.20;;;6.80;99.90;;;;;;5086237;28;20079;-69
2022/04/08 17:36:44;;;;;;;22.60;3.33;;;6.80;99.90;;;;;;5067048;28;20059;-69
2022/04/08 17:39:11;;;;;;;13.88;2.22;;;6.90;99.90;;;;;;5084912;28;20114;-68
2022/04/08 17:41:37;;;;;;;18.75;3.97;;;6.80;99.90;;;;;;5085864;28;20504;-68
2022/04/08 17:44:04;;;;;;;15.98;2.85;;;6.80;99.90;;;;;;5106503;27;20051;-69
2022/04/08 17:46:32;;;;;;;15.45;3.42;;;6.70;99.90;;;;;;5052590;28;20040;-69
2022/04/08 17:48:59;;;;;;;15.82;3.33;;;6.70;99.90;;;;;;5069006;28;20040;-68
2022/04/08 17:51:29;;;;;;;17.77;3.35;;;6.70;99.90;;;;;;5096496;28;20455;-69
2022/04/08 17:54:00;;;;;;;18.63;3.67;;;6.70;99.90;;;;;;5083412;28;20424;-69
2022/04/08 17:56:27;;;;;;;20.17;3.85;;;6.70;99.90;;;;;;5066712;28;20044;-69
2022/04/08 17:58:53;;;;;;;22.60;3.20;;;6.70;99.90;;;;;;5053508;28;20047;-68
2022/04/08 18:01:19;;;;;;;16.52;4.10;;;6.60;99.90;;;;;;5105451;28;20540;-68
2022/04/08 18:03:45;;;;;;;18.73;3.78;;;6.50;99.90;;;;;;5089080;28;20051;-69
2022/04/08 18:06:12;;;;;;;18.55;3.95;;;6.50;99.90;;;;;;5072013;28;20086;-68
2022/04/08 18:08:38;;;;;;;13.52;3.63;;;6.50;99.90;;;;;;5105969;27;20039;-68
2022/04/08 18:11:04;;;;;;;28.13;3.35;;;6.40;99.90;;;;;;5084334;28;20044;-68
2022/04/08 18:13:34;;;;;;;12.88;2.97;;;6.40;99.90;;;;;;5087258;28;20032;-68
2022/04/08 18:16:01;;;;;;;17.10;3.83;;;6.30;99.90;;;;;;5106507;28;20114;-69
2022/04/08 18:18:29;;;;;;;15.02;3.55;;;6.30;99.90;;;;;;5081545;28;20139;-69
2022/04/08 18:20:55;;;;;;;14.52;3.45;;;6.40;99.90;;;;;;5106978;28;20501;-68
2022/04/08 18:23:21;;;;;;;11.68;2.47;;;6.30;99.90;;;;;;5087563;27;20077;-69
2022/04/08 18:25:47;;;;;;;15.85;3.58;;;6.30;99.90;;;;;;5086761;28;20036;-68
2022/04/08 18:28:13;;;;;;;12.23;2.55;;;6.30;99.90;;;;;;5080111;28;20101;-69
2022/04/08 18:30:39;;;;;;;20.60;2.88;;;6.20;99.90;;;;;;5085059;28;20048;-68
2022/04/08 18:33:08;;;;;;;17.52;3.63;;;6.20;99.90;;;;;;5083594;28;20480;-68
2022/04/08 18:35:33;;;;;;;12.48;1.98;;;6.20;99.90;;;;;;5068742;28;20058;-68
2022/04/08 18:37:59;;;;;;;22.20;3.30;;;6.20;99.90;;;;;;5103166;28;20051;-69
2022/04/08 18:40:25;;;;;;;22.35;3.20;;;6.20;99.90;;;;;;5084633;28;20075;-68
2022/04/08 18:42:51;;;;;;;14.43;2.25;;;6.20;99.90;;;;;;5068063;28;20958;-68
2022/04/08 18:45:16;;;;;;;12.80;2.55;;;6.10;99.90;;;;;;5051966;28;20036;-69
2022/04/08 18:47:42;;;;;;;16.48;2.63;;;6.10;99.90;;;;;;5068747;28;20497;-67
2022/04/08 18:50:08;;;;;;;21.95;3.95;;;6.10;99.90;;;;;;5081190;28;20158;-68
2022/04/08 18:52:34;;;;;;;13.48;2.92;;;6.10;99.90;;;;;;5065457;28;20052;-68
2022/04/08 18:55:00;;;;;;;19.63;3.30;;;6.00;99.90;;;;;;5067815;28;20056;-68
2022/04/08 18:57:26;;;;;;;23.13;3.30;;;6.00;99.90;;;;;;5063804;28;20440;-68
2022/04/08 18:59:51;;;;;;;20.90;4.35;;;6.00;99.90;;;;;;5067262;28;20037;-68
2022/04/08 19:02:18;;;;;;;18.13;3.85;;;6.00;99.90;;;;;;5067403;28;20055;-68
2022/04/08 19:04:44;;;;;;;15.70;2.65;;;5.90;99.90;;;;;;5064224;28;21027;-68
2022/04/08 19:07:10;;;;;;;18.60;3.65;;;5.90;99.90;;;;;;5065517;28;20386;-68
2022/04/08 19:09:37;;;;;;;15.85;3.63;;;5.90;99.90;;;;;;5064802;28;20051;-68
2022/04/08 19:12:06;;;;;;;17.13;3.20;;;5.90;99.90;;;;;;5066735;28;20431;-68
2022/04/08 19:14:32;;;;;;;23.88;3.83;;;5.90;99.90;;;;;;5046989;28;20094;-68
2022/04/08 19:16:58;;;;;;;19.27;3.20;;;5.90;99.90;;;;;;5066471;28;20045;-69
2022/04/08 19:19:27;;;;;;;18.77;3.08;;;5.90;99.90;;;;;;5064063;28;20131;-68
2022/04/08 19:21:54;;;;;;;19.02;2.58;;;5.80;99.90;;;;;;5075752;28;20052;-68
2022/04/08 19:24:20;;;;;;;18.27;2.72;;;5.80;99.90;;;;;;5078472;28;20040;-69
2022/04/08 19:26:46;;;;;;;25.77;3.47;;;5.70;99.90;;;;;;5084345;28;20470;-69
2022/04/08 19:29:12;;;;;;;22.95;3.58;;;5.70;99.90;;;;;;5085063;28;20119;-68
2022/04/08 19:31:39;;;;;;;24.15;3.90;;;5.70;99.90;;;;;;5076416;28;20453;-68
2022/04/08 19:34:08;;;;;;;20.05;2.70;;;5.70;99.90;;;;;;5066646;28;20363;-68
2022/04/08 19:36:36;;;;;;;11.85;3.00;;;5.70;99.90;;;;;;5064317;28;20073;-68
2022/04/08 19:39:02;;;;;;;16.08;2.78;;;5.60;99.90;;;;;;5066696;28;20049;-68
2022/04/08 19:41:28;;;;;;;15.35;2.53;;;5.60;99.90;;;;;;5070244;28;20090;-68
2022/04/08 19:43:53;;;;;;;15.02;2.83;;;5.60;99.90;;;;;;5067493;28;20040;-69
2022/04/08 19:46:19;;;;;;;19.67;3.20;;;5.60;99.90;;;;;;5069855;28;20082;-68
2022/04/08 19:48:46;;;;;;;15.45;2.60;;;5.60;99.90;;;;;;5067060;28;20049;-68
2022/04/08 19:51:13;;;;;;;15.88;2.35;;;5.60;99.90;;;;;;5070253;28;20056;-68
2022/04/08 19:53:39;;;;;;;18.65;2.78;;;5.50;99.90;;;;;;5083667;28;20060;-68
2022/04/08 19:56:05;;;;;;;18.80;2.85;;;5.50;99.90;;;;;;5055110;28;20108;-68
2022/04/08 19:58:32;;;;;;;16.17;2.88;;;5.50;99.90;;;;;;5070632;28;20048;-68
2022/04/08 20:00:59;;;;;;;14.65;3.22;;;5.40;99.90;;;;;;5056141;28;20040;-68
2022/04/08 20:03:25;;;;;;;15.55;3.00;;;5.40;99.90;;;;;;5080192;28;20051;-67
2022/04/08 20:05:51;;;;;;;16.42;3.13;;;5.40;99.90;;;;;;5069918;28;20052;-68
2022/04/08 20:08:17;;;;;;;18.75;3.42;;;5.40;99.90;;;;;;5089558;28;20048;-68
2022/04/08 20:10:43;;;;;;;16.17;2.88;;;5.40;99.90;;;;;;5070476;28;20094;-68
2022/04/08 20:13:09;;;;;;;20.55;3.08;;;5.40;99.90;;;;;;5076012;28;20055;-69
2022/04/08 20:15:34;;;;;;;15.77;3.55;;;5.40;99.90;;;;;;5090442;28;20050;-67
2022/04/08 20:18:00;;;;;;;19.45;3.30;;;5.50;99.90;;;;;;5091442;28;20043;-68
2022/04/08 20:20:28;;;;;;;25.45;3.28;;;5.50;99.90;;;;;;5091296;28;20088;-67
2022/04/08 20:22:55;;;;;;;16.25;2.38;;;5.50;99.90;;;;;;5107817;28;20566;-68
2022/04/08 20:25:21;;;;;;;14.35;2.28;;;5.50;99.90;;;;;;5055688;28;20060;-68
2022/04/08 20:27:48;;;;;;;19.08;3.20;;;5.40;99.90;;;;;;5069300;28;20047;-69
2022/04/08 20:30:15;;;;;;;18.17;3.05;;;5.40;99.90;;;;;;5070938;28;20599;-68
2022/04/08 20:32:40;;;;;;;16.00;2.80;;;5.30;99.90;;;;;;5085355;28;20048;-68
2022/04/08 20:35:07;;;;;;;14.70;3.28;;;5.30;99.90;;;;;;5078531;28;20573;-69
2022/04/08 20:37:33;;;;;;;21.58;3.67;;;5.30;99.90;;;;;;5069999;28;20055;-68
2022/04/08 20:39:59;;;;;;;15.57;3.65;;;5.30;99.90;;;;;;5069992;28;20409;-67
2022/04/08 20:42:25;;;;;;;23.65;3.92;;;5.20;99.90;;;;;;5070980;28;20119;-68
2022/04/08 20:44:50;;;;;;;15.85;2.83;;;5.30;99.90;;;;;;5070619;28;20040;-68
2022/04/08 20:47:16;;;;;;;16.05;2.63;;;5.30;99.90;;;;;;5071020;28;20052;-67
2022/04/08 20:49:42;;;;;;;20.27;2.67;;;5.30;99.90;;;;;;5069481;28;20462;-68
2022/04/08 20:52:08;;;;;;;12.93;2.53;;;5.20;99.90;;;;;;5072212;28;20089;-68
2022/04/08 20:54:34;;;;;;;12.57;2.92;;;5.20;99.90;;;;;;5107891;28;20083;-67
2022/04/08 20:57:00;;;;;;;14.77;2.47;;;5.10;99.90;;;;;;5090284;28;20051;-68
2022/04/08 20:59:26;;;;;;;18.42;2.33;;;5.20;99.90;;;;;;5109166;28;20031;-68
2022/04/08 21:01:52;;;;;;;17.27;3.25;;;5.10;99.90;;;;;;5085199;28;20048;-68
2022/04/08 21:04:20;;;;;;;10.65;2.33;;;5.00;99.90;;;;;;5071105;28;20577;-68
2022/04/08 21:06:50;;;;;;;10.05;2.90;;;4.90;99.90;;;;;;5087188;28;20047;-69
2022/04/08 21:09:17;;;;;;;26.95;4.00;;;5.00;99.90;;;;;;5070281;28;20405;-68
2022/04/08 21:11:43;;;;;;;17.17;3.30;;;5.00;99.90;;;;;;5052372;28;20100;-68
2022/04/08 21:14:09;;;;;;;15.68;2.67;;;5.00;99.90;;;;;;5088393;28;20048;-69
2022/04/08 21:16:36;;;;;;;20.95;3.55;;;4.90;99.90;;;;;;5055276;28;20047;-68
2022/04/08 21:19:02;;;;;;;14.13;3.00;;;4.90;99.90;;;;;;5105334;28;20047;-68
2022/04/08 21:21:28;;;;;;;12.45;2.20;;;5.00;99.90;;;;;;5084969;28;20055;-69
2022/04/08 21:23:55;;;;;;;16.20;2.75;;;5.00;99.90;;;;;;5085006;28;20048;-68
2022/04/08 21:26:21;;;;;;;20.92;3.55;;;5.00;99.90;;;;;;5089294;27;20112;-68
2022/04/08 21:28:47;;;;;;;27.42;3.95;;;5.10;99.90;;;;;;5107527;28;20512;-68
2022/04/08 21:31:15;;;;;;;16.17;2.83;;;5.00;99.90;;;;;;5067345;28;20040;-68
2022/04/08 21:33:41;;;;;;;15.93;2.38;;;4.90;99.90;;;;;;5082610;27;20040;-68
2022/04/08 21:36:09;;;;;;;21.90;3.13;;;4.90;99.90;;;;;;5066276;28;20478;-68
2022/04/08 21:38:38;;;;;;;24.75;3.72;;;4.90;99.90;;;;;;5087007;28;20172;-68
2022/04/08 21:41:04;;;;;;;12.40;2.20;;;4.80;99.90;;;;;;5103058;28;20054;-68
2022/04/08 21:43:30;;;;;;;12.45;2.78;;;4.80;99.90;;;;;;5087050;28;20207;-68
2022/04/08 21:45:56;;;;;;;17.98;3.92;;;4.80;99.90;;;;;;5066745;28;20040;-69
2022/04/08 21:48:22;;;;;;;14.25;2.80;;;4.80;99.90;;;;;;5068003;28;20066;-68
2022/04/08 21:50:48;;;;;;;13.20;2.60;;;4.80;99.90;;;;;;5084868;28;20465;-68
2022/04/08 21:53:13;;;;;;;13.80;2.17;;;4.80;99.90;;;;;;5061707;28;20087;-68
2022/04/08 21:55:45;;;;;;;18.60;2.63;;;4.80;99.90;;;;;;5061701;28;20075;-68
2022/04/08 21:58:19;;;;;;;17.38;3.65;;;4.80;99.90;;;;;;5065831;28;20580;-67
2022/04/08 22:00:47;;;;;;;13.50;2.20;;;4.90;99.90;;;;;;5083287;28;20062;-69
2022/04/08 22:03:18;;;;;;;12.13;2.75;;;4.90;99.90;;;;;;5078987;28;20127;-69
2022/04/08 22:05:44;;;;;;;17.70;3.00;;;4.90;99.90;;;;;;5063807;28;20044;-69
2022/04/08 22:08:11;;;;;;;15.80;2.78;;;5.00;99.90;;;;;;5082952;28;20120;-68
2022/04/08 22:10:44;;;;;;;15.90;3.53;;;5.00;99.90;;;;;;5081094;28;20085;-68
2022/04/08 22:13:12;;;;;;;14.88;3.20;;;5.00;99.90;;;;;;5085488;28;20044;-68
2022/04/08 22:15:39;;;;;;;19.45;3.17;;;4.90;99.90;;;;;;5082701;28;20047;-68
2022/04/08 22:18:11;;;;;;;15.55;2.83;;;4.90;99.90;;;;;;5084170;28;20169;-68
2022/04/08 22:20:39;;;;;;;15.90;2.97;;;5.00;99.90;;;;;;5083094;28;20535;-68
2022/04/08 22:23:05;;;;;;;15.20;2.03;;;5.10;99.90;;;;;;5083973;28;20093;-68
2022/04/08 22:25:32;;;;;;;16.95;2.83;;;5.10;99.90;;;;;;5082460;28;20055;-68
2022/04/08 22:27:59;;;;;;;11.13;2.00;;;5.20;99.90;;;;;;5086389;28;20044;-68
2022/04/08 22:30:25;;;;;;;10.27;2.03;;;5.10;99.90;;;;;;5083523;28;20402;-68
2022/04/08 22:32:51;;;;;;;9.82;1.90;;;5.00;99.90;;;;;;5080379;28;20041;-68
2022/04/08 22:35:16;;;;;;;8.82;1.30;;;5.00;99.90;;;;;;5065813;28;20047;-68
2022/04/08 22:37:42;;;;;;;9.18;1.20;;;4.90;99.90;;;;;;5047171;28;20048;-68